<?xml version="1.0" encoding="UTF-8" standalone="no" ?>
<gpx xmlns="http://www.topografix.com/GPX/1/1" xmlns:xsi="http://www.w3.org/2001/XMLSchema-instance" xsi:schemaLocation="http://www.topografix.com/GPX/1/1 http://www.topografix.com/GPX/1/1/gpx.xsd" version="1.1" creator="VisuGPX - https://www.visugpx.com">
  <metadata>
    <name>Le plat du chêne - Col de la Luere (69)</name>
    <desc><![CDATA[Parcours du plat du chêne au col de la luere (69)]]></desc>
  </metadata>
  <trk>
    <name><![CDATA[Le plat du chêne - Col de la Luere (69)_1]]></name>
    <trkseg>
      <trkpt lat="45.76284" lon="4.62886">
        <ele>728.34</ele>
        <time>2021-04-08T09:09:08Z</time>
      </trkpt>
      <trkpt lat="45.76288" lon="4.62923">
        <ele>727.86</ele>
        <time>2021-04-08T09:09:33Z</time>
      </trkpt>
      <trkpt lat="45.76294" lon="4.62931">
        <ele>728.82</ele>
        <time>2021-04-08T09:09:46Z</time>
      </trkpt>
      <trkpt lat="45.76307" lon="4.62944">
        <ele>730.26</ele>
        <time>2021-04-08T09:10:06Z</time>
      </trkpt>
      <trkpt lat="45.76309" lon="4.62956">
        <ele>731.22</ele>
        <time>2021-04-08T09:10:32Z</time>
      </trkpt>
      <trkpt lat="45.76339" lon="4.63137">
        <ele>736.03</ele>
        <time>2021-04-08T09:15:43Z</time>
      </trkpt>
      <trkpt lat="45.76344" lon="4.63197">
        <ele>734.1</ele>
        <time>2021-04-08T09:15:55Z</time>
      </trkpt>
      <trkpt lat="45.7635" lon="4.63252">
        <ele>731.7</ele>
        <time>2021-04-08T09:16:06Z</time>
      </trkpt>
      <trkpt lat="45.76348" lon="4.63297">
        <ele>729.78</ele>
        <time>2021-04-08T09:16:10Z</time>
      </trkpt>
      <trkpt lat="45.76349" lon="4.63377">
        <ele>726.41</ele>
        <time>2021-04-08T09:16:19Z</time>
      </trkpt>
      <trkpt lat="45.7635" lon="4.63421">
        <ele>722.57</ele>
        <time>2021-04-08T09:16:27Z</time>
      </trkpt>
      <trkpt lat="45.76349" lon="4.63429">
        <ele>721.61</ele>
        <time>2021-04-08T09:16:29Z</time>
      </trkpt>
      <trkpt lat="45.76351" lon="4.63451">
        <ele>718.24</ele>
        <time>2021-04-08T09:16:34Z</time>
      </trkpt>
      <trkpt lat="45.76353" lon="4.6347">
        <ele>714.4</ele>
        <time>2021-04-08T09:16:41Z</time>
      </trkpt>
      <trkpt lat="45.7635" lon="4.63491">
        <ele>711.03</ele>
        <time>2021-04-08T09:16:50Z</time>
      </trkpt>
      <trkpt lat="45.76352" lon="4.63525">
        <ele>707.67</ele>
        <time>2021-04-08T09:16:59Z</time>
      </trkpt>
      <trkpt lat="45.76354" lon="4.63536">
        <ele>704.3</ele>
        <time>2021-04-08T09:17:03Z</time>
      </trkpt>
      <trkpt lat="45.76358" lon="4.63555">
        <ele>700.94</ele>
        <time>2021-04-08T09:17:08Z</time>
      </trkpt>
      <trkpt lat="45.76366" lon="4.63587">
        <ele>697.57</ele>
        <time>2021-04-08T09:17:13Z</time>
      </trkpt>
      <trkpt lat="45.76372" lon="4.6362">
        <ele>694.21</ele>
        <time>2021-04-08T09:17:19Z</time>
      </trkpt>
      <trkpt lat="45.76374" lon="4.63624">
        <ele>693.25</ele>
        <time>2021-04-08T09:17:20Z</time>
      </trkpt>
      <trkpt lat="45.76392" lon="4.63635">
        <ele>687.96</ele>
        <time>2021-04-08T09:17:25Z</time>
      </trkpt>
      <trkpt lat="45.76387" lon="4.63678">
        <ele>685.08</ele>
        <time>2021-04-08T09:17:31Z</time>
      </trkpt>
      <trkpt lat="45.76382" lon="4.63703">
        <ele>682.67</ele>
        <time>2021-04-08T09:17:34Z</time>
      </trkpt>
      <trkpt lat="45.76381" lon="4.63732">
        <ele>678.35</ele>
        <time>2021-04-08T09:17:39Z</time>
      </trkpt>
      <trkpt lat="45.76384" lon="4.63748">
        <ele>674.98</ele>
        <time>2021-04-08T09:17:44Z</time>
      </trkpt>
      <trkpt lat="45.76383" lon="4.63758">
        <ele>674.02</ele>
        <time>2021-04-08T09:17:46Z</time>
      </trkpt>
      <trkpt lat="45.7638" lon="4.63795">
        <ele>670.66</ele>
        <time>2021-04-08T09:17:53Z</time>
      </trkpt>
      <trkpt lat="45.76378" lon="4.63807">
        <ele>669.7</ele>
        <time>2021-04-08T09:17:55Z</time>
      </trkpt>
      <trkpt lat="45.7638" lon="4.6384">
        <ele>665.37</ele>
        <time>2021-04-08T09:18:01Z</time>
      </trkpt>
      <trkpt lat="45.76383" lon="4.63868">
        <ele>662.01</ele>
        <time>2021-04-08T09:18:06Z</time>
      </trkpt>
      <trkpt lat="45.76385" lon="4.63894">
        <ele>659.6</ele>
        <time>2021-04-08T09:18:10Z</time>
      </trkpt>
      <trkpt lat="45.76386" lon="4.63919">
        <ele>654.8</ele>
        <time>2021-04-08T09:18:15Z</time>
      </trkpt>
      <trkpt lat="45.76392" lon="4.63933">
        <ele>651.43</ele>
        <time>2021-04-08T09:18:19Z</time>
      </trkpt>
      <trkpt lat="45.76405" lon="4.63947">
        <ele>648.55</ele>
        <time>2021-04-08T09:18:24Z</time>
      </trkpt>
      <trkpt lat="45.76412" lon="4.63967">
        <ele>648.07</ele>
        <time>2021-04-08T09:18:29Z</time>
      </trkpt>
      <trkpt lat="45.76419" lon="4.63985">
        <ele>647.59</ele>
        <time>2021-04-08T09:18:32Z</time>
      </trkpt>
      <trkpt lat="45.76436" lon="4.64022">
        <ele>644.22</ele>
        <time>2021-04-08T09:18:40Z</time>
      </trkpt>
      <trkpt lat="45.76431" lon="4.64053">
        <ele>641.34</ele>
        <time>2021-04-08T09:18:46Z</time>
      </trkpt>
      <trkpt lat="45.76438" lon="4.64072">
        <ele>639.89</ele>
        <time>2021-04-08T09:18:51Z</time>
      </trkpt>
      <trkpt lat="45.76436" lon="4.64072">
        <ele>638.93</ele>
        <time>2021-04-08T09:18:53Z</time>
      </trkpt>
      <trkpt lat="45.76423" lon="4.6411">
        <ele>635.57</ele>
        <time>2021-04-08T09:19:03Z</time>
      </trkpt>
      <trkpt lat="45.76426" lon="4.64124">
        <ele>632.2</ele>
        <time>2021-04-08T09:19:08Z</time>
      </trkpt>
      <trkpt lat="45.76428" lon="4.64128">
        <ele>631.72</ele>
        <time>2021-04-08T09:19:09Z</time>
      </trkpt>
      <trkpt lat="45.76451" lon="4.64152">
        <ele>627.88</ele>
        <time>2021-04-08T09:19:16Z</time>
      </trkpt>
      <trkpt lat="45.76467" lon="4.64165">
        <ele>624.99</ele>
        <time>2021-04-08T09:19:21Z</time>
      </trkpt>
      <trkpt lat="45.76477" lon="4.6417">
        <ele>621.63</ele>
        <time>2021-04-08T09:19:25Z</time>
      </trkpt>
      <trkpt lat="45.7648" lon="4.64169">
        <ele>621.15</ele>
        <time>2021-04-08T09:19:26Z</time>
      </trkpt>
      <trkpt lat="45.76469" lon="4.64182">
        <ele>620.19</ele>
        <time>2021-04-08T09:21:18Z</time>
      </trkpt>
      <trkpt lat="45.7649" lon="4.64208">
        <ele>619.23</ele>
        <time>2021-04-08T09:21:26Z</time>
      </trkpt>
      <trkpt lat="45.76493" lon="4.64214">
        <ele>618.26</ele>
        <time>2021-04-08T09:21:28Z</time>
      </trkpt>
      <trkpt lat="45.765" lon="4.64224">
        <ele>614.42</ele>
        <time>2021-04-08T09:21:31Z</time>
      </trkpt>
      <trkpt lat="45.76499" lon="4.64228">
        <ele>613.46</ele>
        <time>2021-04-08T09:21:32Z</time>
      </trkpt>
      <trkpt lat="45.76507" lon="4.64232">
        <ele>610.09</ele>
        <time>2021-04-08T09:21:36Z</time>
      </trkpt>
      <trkpt lat="45.76523" lon="4.64236">
        <ele>605.77</ele>
        <time>2021-04-08T09:21:40Z</time>
      </trkpt>
      <trkpt lat="45.76529" lon="4.64236">
        <ele>604.81</ele>
        <time>2021-04-08T09:21:41Z</time>
      </trkpt>
      <trkpt lat="45.76547" lon="4.64222">
        <ele>600.96</ele>
        <time>2021-04-08T09:21:47Z</time>
      </trkpt>
      <trkpt lat="45.76553" lon="4.64216">
        <ele>599.52</ele>
        <time>2021-04-08T09:21:49Z</time>
      </trkpt>
      <trkpt lat="45.76561" lon="4.64223">
        <ele>596.64</ele>
        <time>2021-04-08T09:21:52Z</time>
      </trkpt>
      <trkpt lat="45.76566" lon="4.6423">
        <ele>595.19</ele>
        <time>2021-04-08T09:21:54Z</time>
      </trkpt>
      <trkpt lat="45.76573" lon="4.64238">
        <ele>592.31</ele>
        <time>2021-04-08T09:21:58Z</time>
      </trkpt>
      <trkpt lat="45.76573" lon="4.64241">
        <ele>591.83</ele>
        <time>2021-04-08T09:21:59Z</time>
      </trkpt>
      <trkpt lat="45.7658" lon="4.64251">
        <ele>587.5</ele>
        <time>2021-04-08T09:22:03Z</time>
      </trkpt>
      <trkpt lat="45.76582" lon="4.64253">
        <ele>587.02</ele>
        <time>2021-04-08T09:22:04Z</time>
      </trkpt>
      <trkpt lat="45.76588" lon="4.64272">
        <ele>582.7</ele>
        <time>2021-04-08T09:22:10Z</time>
      </trkpt>
      <trkpt lat="45.76591" lon="4.64278">
        <ele>581.25</ele>
        <time>2021-04-08T09:22:12Z</time>
      </trkpt>
      <trkpt lat="45.76593" lon="4.64306">
        <ele>575.49</ele>
        <time>2021-04-08T09:22:18Z</time>
      </trkpt>
      <trkpt lat="45.7659" lon="4.64315">
        <ele>574.53</ele>
        <time>2021-04-08T09:22:19Z</time>
      </trkpt>
      <trkpt lat="45.76591" lon="4.64338">
        <ele>570.2</ele>
        <time>2021-04-08T09:22:24Z</time>
      </trkpt>
      <trkpt lat="45.76591" lon="4.64353">
        <ele>567.32</ele>
        <time>2021-04-08T09:22:28Z</time>
      </trkpt>
      <trkpt lat="45.76589" lon="4.64366">
        <ele>563.95</ele>
        <time>2021-04-08T09:22:34Z</time>
      </trkpt>
      <trkpt lat="45.76589" lon="4.64368">
        <ele>562.99</ele>
        <time>2021-04-08T09:22:35Z</time>
      </trkpt>
      <trkpt lat="45.76585" lon="4.64383">
        <ele>560.11</ele>
        <time>2021-04-08T09:22:40Z</time>
      </trkpt>
      <trkpt lat="45.76565" lon="4.64415">
        <ele>556.74</ele>
        <time>2021-04-08T09:22:49Z</time>
      </trkpt>
      <trkpt lat="45.76553" lon="4.64443">
        <ele>553.38</ele>
        <time>2021-04-08T09:22:55Z</time>
      </trkpt>
      <trkpt lat="45.76553" lon="4.64451">
        <ele>552.9</ele>
        <time>2021-04-08T09:22:56Z</time>
      </trkpt>
      <trkpt lat="45.76554" lon="4.6446">
        <ele>552.41</ele>
        <time>2021-04-08T09:22:57Z</time>
      </trkpt>
      <trkpt lat="45.76564" lon="4.64502">
        <ele>548.57</ele>
        <time>2021-04-08T09:23:01Z</time>
      </trkpt>
      <trkpt lat="45.76572" lon="4.64537">
        <ele>545.69</ele>
        <time>2021-04-08T09:23:05Z</time>
      </trkpt>
      <trkpt lat="45.76575" lon="4.64545">
        <ele>545.69</ele>
        <time>2021-04-08T09:23:06Z</time>
      </trkpt>
      <trkpt lat="45.76578" lon="4.64553">
        <ele>544.24</ele>
        <time>2021-04-08T09:23:07Z</time>
      </trkpt>
      <trkpt lat="45.76581" lon="4.64563">
        <ele>543.76</ele>
        <time>2021-04-08T09:23:08Z</time>
      </trkpt>
      <trkpt lat="45.76585" lon="4.64574">
        <ele>542.32</ele>
        <time>2021-04-08T09:23:09Z</time>
      </trkpt>
      <trkpt lat="45.766" lon="4.64619">
        <ele>539.44</ele>
        <time>2021-04-08T09:23:13Z</time>
      </trkpt>
      <trkpt lat="45.76611" lon="4.64654">
        <ele>536.07</ele>
        <time>2021-04-08T09:23:17Z</time>
      </trkpt>
      <trkpt lat="45.76618" lon="4.6468">
        <ele>532.71</ele>
        <time>2021-04-08T09:23:20Z</time>
      </trkpt>
      <trkpt lat="45.76631" lon="4.64741">
        <ele>529.82</ele>
        <time>2021-04-08T09:23:25Z</time>
      </trkpt>
      <trkpt lat="45.76637" lon="4.64764">
        <ele>529.82</ele>
        <time>2021-04-08T09:23:27Z</time>
      </trkpt>
      <trkpt lat="45.76643" lon="4.64813">
        <ele>525.02</ele>
        <time>2021-04-08T09:23:31Z</time>
      </trkpt>
      <trkpt lat="45.76644" lon="4.6484">
        <ele>521.17</ele>
        <time>2021-04-08T09:23:33Z</time>
      </trkpt>
      <trkpt lat="45.76648" lon="4.64915">
        <ele>517.81</ele>
        <time>2021-04-08T09:23:38Z</time>
      </trkpt>
      <trkpt lat="45.7665" lon="4.64962">
        <ele>513.96</ele>
        <time>2021-04-08T09:23:41Z</time>
      </trkpt>
      <trkpt lat="45.76651" lon="4.64995">
        <ele>509.64</ele>
        <time>2021-04-08T09:23:43Z</time>
      </trkpt>
      <trkpt lat="45.76653" lon="4.65011">
        <ele>508.19</ele>
        <time>2021-04-08T09:23:44Z</time>
      </trkpt>
      <trkpt lat="45.76658" lon="4.65034">
        <ele>504.35</ele>
        <time>2021-04-08T09:23:46Z</time>
      </trkpt>
      <trkpt lat="45.7666" lon="4.65052">
        <ele>500.98</ele>
        <time>2021-04-08T09:23:48Z</time>
      </trkpt>
      <trkpt lat="45.76662" lon="4.65071">
        <ele>498.1</ele>
        <time>2021-04-08T09:23:50Z</time>
      </trkpt>
      <trkpt lat="45.76664" lon="4.65093">
        <ele>493.77</ele>
        <time>2021-04-08T09:23:52Z</time>
      </trkpt>
      <trkpt lat="45.76666" lon="4.65129">
        <ele>490.41</ele>
        <time>2021-04-08T09:23:55Z</time>
      </trkpt>
      <trkpt lat="45.76673" lon="4.65207">
        <ele>487.05</ele>
        <time>2021-04-08T09:24:01Z</time>
      </trkpt>
      <trkpt lat="45.76675" lon="4.65268">
        <ele>483.2</ele>
        <time>2021-04-08T09:24:06Z</time>
      </trkpt>
      <trkpt lat="45.76677" lon="4.65313">
        <ele>479.84</ele>
        <time>2021-04-08T09:24:10Z</time>
      </trkpt>
      <trkpt lat="45.76676" lon="4.65334">
        <ele>479.35</ele>
        <time>2021-04-08T09:24:12Z</time>
      </trkpt>
      <trkpt lat="45.76675" lon="4.65344">
        <ele>478.87</ele>
        <time>2021-04-08T09:24:13Z</time>
      </trkpt>
      <trkpt lat="45.76673" lon="4.65355">
        <ele>478.87</ele>
        <time>2021-04-08T09:24:14Z</time>
      </trkpt>
      <trkpt lat="45.76653" lon="4.6545">
        <ele>475.51</ele>
        <time>2021-04-08T09:24:23Z</time>
      </trkpt>
      <trkpt lat="45.76651" lon="4.65459">
        <ele>475.03</ele>
        <time>2021-04-08T09:24:24Z</time>
      </trkpt>
      <trkpt lat="45.76647" lon="4.65467">
        <ele>474.55</ele>
        <time>2021-04-08T09:24:25Z</time>
      </trkpt>
      <trkpt lat="45.76644" lon="4.65476">
        <ele>474.55</ele>
        <time>2021-04-08T09:24:26Z</time>
      </trkpt>
      <trkpt lat="45.76636" lon="4.655">
        <ele>474.07</ele>
        <time>2021-04-08T09:24:29Z</time>
      </trkpt>
      <trkpt lat="45.76632" lon="4.65506">
        <ele>474.07</ele>
        <time>2021-04-08T09:24:30Z</time>
      </trkpt>
      <trkpt lat="45.76628" lon="4.65512">
        <ele>474.07</ele>
        <time>2021-04-08T09:24:31Z</time>
      </trkpt>
      <trkpt lat="45.76609" lon="4.65539">
        <ele>473.59</ele>
        <time>2021-04-08T09:24:36Z</time>
      </trkpt>
      <trkpt lat="45.76605" lon="4.65544">
        <ele>474.07</ele>
        <time>2021-04-08T09:24:37Z</time>
      </trkpt>
      <trkpt lat="45.76564" lon="4.65596">
        <ele>475.03</ele>
        <time>2021-04-08T09:24:48Z</time>
      </trkpt>
      <trkpt lat="45.76561" lon="4.65602">
        <ele>475.03</ele>
        <time>2021-04-08T09:24:49Z</time>
      </trkpt>
      <trkpt lat="45.76516" lon="4.65698">
        <ele>475.03</ele>
        <time>2021-04-08T09:25:01Z</time>
      </trkpt>
      <trkpt lat="45.76494" lon="4.65756">
        <ele>472.63</ele>
        <time>2021-04-08T09:25:06Z</time>
      </trkpt>
      <trkpt lat="45.76472" lon="4.65791">
        <ele>469.26</ele>
        <time>2021-04-08T09:25:09Z</time>
      </trkpt>
      <trkpt lat="45.76463" lon="4.65803">
        <ele>469.26</ele>
        <time>2021-04-08T09:25:10Z</time>
      </trkpt>
      <trkpt lat="45.76443" lon="4.65829">
        <ele>465.9</ele>
        <time>2021-04-08T09:25:12Z</time>
      </trkpt>
      <trkpt lat="45.76413" lon="4.65867">
        <ele>462.05</ele>
        <time>2021-04-08T09:25:15Z</time>
      </trkpt>
      <trkpt lat="45.76393" lon="4.65895">
        <ele>458.69</ele>
        <time>2021-04-08T09:25:17Z</time>
      </trkpt>
      <trkpt lat="45.76374" lon="4.65921">
        <ele>453.88</ele>
        <time>2021-04-08T09:25:19Z</time>
      </trkpt>
      <trkpt lat="45.76357" lon="4.65944">
        <ele>449.55</ele>
        <time>2021-04-08T09:25:21Z</time>
      </trkpt>
      <trkpt lat="45.7635" lon="4.65954">
        <ele>446.19</ele>
        <time>2021-04-08T09:25:22Z</time>
      </trkpt>
      <trkpt lat="45.76343" lon="4.65963">
        <ele>443.31</ele>
        <time>2021-04-08T09:25:23Z</time>
      </trkpt>
      <trkpt lat="45.76331" lon="4.6598">
        <ele>438.98</ele>
        <time>2021-04-08T09:25:25Z</time>
      </trkpt>
      <trkpt lat="45.76326" lon="4.65985">
        <ele>437.54</ele>
        <time>2021-04-08T09:25:26Z</time>
      </trkpt>
      <trkpt lat="45.7632" lon="4.65988">
        <ele>435.61</ele>
        <time>2021-04-08T09:25:27Z</time>
      </trkpt>
      <trkpt lat="45.76313" lon="4.65987">
        <ele>433.69</ele>
        <time>2021-04-08T09:25:28Z</time>
      </trkpt>
      <trkpt lat="45.76307" lon="4.65982">
        <ele>432.73</ele>
        <time>2021-04-08T09:25:29Z</time>
      </trkpt>
      <trkpt lat="45.76302" lon="4.65976">
        <ele>432.25</ele>
        <time>2021-04-08T09:25:30Z</time>
      </trkpt>
      <trkpt lat="45.76297" lon="4.65969">
        <ele>431.77</ele>
        <time>2021-04-08T09:25:31Z</time>
      </trkpt>
      <trkpt lat="45.76293" lon="4.65961">
        <ele>431.77</ele>
        <time>2021-04-08T09:25:32Z</time>
      </trkpt>
      <trkpt lat="45.76271" lon="4.65928">
        <ele>429.85</ele>
        <time>2021-04-08T09:25:36Z</time>
      </trkpt>
      <trkpt lat="45.76254" lon="4.65907">
        <ele>428.4</ele>
        <time>2021-04-08T09:25:39Z</time>
      </trkpt>
      <trkpt lat="45.76249" lon="4.659">
        <ele>428.4</ele>
        <time>2021-04-08T09:25:40Z</time>
      </trkpt>
      <trkpt lat="45.76245" lon="4.65893">
        <ele>428.4</ele>
        <time>2021-04-08T09:25:41Z</time>
      </trkpt>
      <trkpt lat="45.7624" lon="4.65884">
        <ele>427.92</ele>
        <time>2021-04-08T09:25:42Z</time>
      </trkpt>
      <trkpt lat="45.76237" lon="4.65875">
        <ele>427.44</ele>
        <time>2021-04-08T09:25:43Z</time>
      </trkpt>
      <trkpt lat="45.76233" lon="4.65866">
        <ele>426.96</ele>
        <time>2021-04-08T09:25:44Z</time>
      </trkpt>
      <trkpt lat="45.76228" lon="4.65857">
        <ele>426.48</ele>
        <time>2021-04-08T09:25:45Z</time>
      </trkpt>
      <trkpt lat="45.76216" lon="4.65833">
        <ele>425.04</ele>
        <time>2021-04-08T09:25:48Z</time>
      </trkpt>
      <trkpt lat="45.7621" lon="4.65823">
        <ele>423.6</ele>
        <time>2021-04-08T09:25:51Z</time>
      </trkpt>
      <trkpt lat="45.7621" lon="4.65823">
        <ele>423.12</ele>
        <time>2021-04-08T09:25:55Z</time>
      </trkpt>
    </trkseg>
  </trk>
</gpx>